Terminal Aerodrome Forecast
Issued by NWS

Home | Current Version | Previous Version | Text Only | Print | Product List | Glossary Off
Versions: 1 2 3 4 5 6 7 8 9 10 11 12 13 14

000
FTUS43 KOAX 141400 AAA
TAFCDR
TAF AMD
KCDR 141411Z 1414/1512 12007KT P6SM OVC025
     FM141600 08006KT P6SM BKN030
     FM141900 07004KT P6SM SCT040
     FM150000 06008KT P6SM SCT250=

USA.gov is the U.S. government's official web portal to all federal, state and local government web resources and services.